모두
Roskilde Airport (Tune near Roskilde) RKE 기상
|
Tune near Roskilde (RKE / EKRK)
맑은 하늘
잔잔한 바람 |
|
3 °C |
RKE 터미널 지역 예측
| Date | Time (CEST) | Flight Rules | Wind Dir. | Speed | Type | Height AGL (ft) | Visibility | Remarks | ||||||
|---|---|---|---|---|---|---|---|---|---|---|---|---|---|---|
| 06-5월 | 10:00 | VFR | 10° | 6 kt | Clouds and Visibility are OK | >= 6 miles | ||||||||
| 06-5월 | 09:00 | VFR | 10° | 6 kt | Clouds and Visibility are OK | >= 6 miles | ||||||||
| 06-5월 | 08:00 | VFR | 10° | 6 kt | Clouds and Visibility are OK | >= 6 miles | ||||||||
| 06-5월 | 07:00 | VFR | 10° | 6 kt | Clouds and Visibility are OK | >= 6 miles | ||||||||
| 06-5월 | 06:00 | VFR | 10° | 6 kt | Clouds and Visibility are OK | >= 6 miles | ||||||||
| 06-5월 | 05:00 | VFR | 10° | 6 kt | Clouds and Visibility are OK | >= 6 miles | ||||||||
| 06-5월 | 04:00 | VFR | 10° | 6 kt | Clouds and Visibility are OK | >= 6 miles | ||||||||
| 06-5월 | 03:00 | VFR | 10° | 6 kt | Clouds and Visibility are OK | >= 6 miles | ||||||||
최근 RKE METAR 이력
| Date | Time (CEST) | Flight Rules | Wind Dir. | Speed | Type | Height AGL (ft) | Visibility | Temp (°C) | Temp (°F) | Dew Point (°C) | Dew Point (°F) | Rel. Humid. | Pressure | Density Altitude | Remarks |
|---|---|---|---|---|---|---|---|---|---|---|---|---|---|---|---|
| 06-5월 | 03:20 | VFR | 340° | 2 kt | 10000 meters | 3° | 37° | 1° | 33° | 87% | 1011 mb | -1,229 ft | |||
| 06-5월 | 02:50 | VFR | 320° | 1 kt | 10000 meters | 4° | 39° | 1° | 33° | 81% | 1011 mb | -1,109 ft | |||
| 06-5월 | 02:20 | VFR | Calm | 10000 meters | 3° | 37° | 0° | 32° | 81% | 1011 mb | -1,229 ft | ||||
| 06-5월 | 01:50 | VFR | 20° | 3 kt | 10000 meters | 4° | 39° | 1° | 33° | 81% | 1011 mb | -1,109 ft | |||
| 06-5월 | 01:20 | VFR | 20° | 5 kt | 10000 meters | 4° | 39° | 2° | 35° | 87% | 1011 mb | -1,109 ft | |||
| 06-5월 | 00:50 | VFR | 10° | 6 kt | 10000 meters | 5° | 41° | 2° | 35° | 81% | 1011 mb | -989 ft | |||
| 06-5월 | 00:20 | VFR | 360° | 6 kt | 10000 meters | 6° | 42° | 2° | 35° | 75% | 1011 mb | -869 ft | |||
| 05-5월 | 23:50 | VFR | 360° | 6 kt | 10000 meters | 5° | 41° | 1° | 33° | 75% | 1011 mb | -989 ft | |||
| 05-5월 | 23:20 | VFR | 360° | 6 kt | 10000 meters | 5° | 41° | 0° | 32° | 70% | 1011 mb | -989 ft | |||
| 05-5월 | 22:50 | VFR | 360° | 6 kt | 10000 meters | 5° | 41° | -1° | 30° | 65% | 1011 mb | -989 ft | |||
| 05-5월 | 22:20 | VFR | 350° | 6 kt | 10000 meters | 6° | 42° | -2° | 28° | 56% | 1012 mb | -898 ft | |||
| 05-5월 | 21:50 | VFR | 350° | 7 kt | 10000 meters | 7° | 44° | -1° | 30° | 57% | 1011 mb | -749 ft | |||
| 05-5월 | 21:20 | n/a | 350° | 6 kt | Missing | 6° | 42° | -1° | 30° | 61% | 1011 mb | -869 ft | |||
| 05-5월 | 20:50 | VFR | 350° | 4 kt | 10000 meters | 9° | 48° | -2° | 28° | 46% | 1011 mb | -509 ft | |||
| 05-5월 | 20:20 | VFR | 350° | 4 kt | 10000 meters | 9° | 48° | -3° | 26° | 43% | 1011 mb | -509 ft | |||
| 05-5월 | 19:50 | VFR | 350° | 6 kt | 10000 meters | 11° | 51° | -5° | 23° | 32% | 1011 mb | -269 ft | |||
| 05-5월 | 19:20 | VFR | 350° | 7 kt | 10000 meters | 11° | 51° | -6° | 21° | 30% | 1011 mb | -269 ft | |||
| 05-5월 | 18:50 | VFR | 360° | 8 kt | 10000 meters | 12° | 53° | -5° | 23° | 30% | 1011 mb | -149 ft | |||
| 05-5월 | 18:20 | VFR | 340° | 11 kt | 10000 meters | 12° | 53° | -2° | 28° | 38% | 1011 mb | -149 ft | |||
| 05-5월 | 17:50 | VFR | 340° | 11 kt | 10000 meters | 13° | 55° | -3° | 26° | 33% | 1011 mb | -29 ft | |||
| 05-5월 | 17:20 | VFR | 330° | 11 kt | 10000 meters | 13° | 55° | -2° | 28° | 35% | 1011 mb | -29 ft | |||
| 05-5월 | 16:50 | VFR | 330° | 9 kt | 10000 meters | 13° | 55° | -1° | 30° | 38% | 1011 mb | -29 ft | |||
| 05-5월 | 16:20 | VFR | 340° | 9 kt | 10000 meters | 13° | 55° | 1° | 33° | 44% | 1011 mb | -29 ft | |||
| 05-5월 | 15:50 | VFR | 340° | 9 kt | 10000 meters | 13° | 55° | 1° | 33° | 44% | 1011 mb | -29 ft |
로그인
| 귀하의 브라우저는 지원되지 않습니다.. 브라우저를 업그레이드하세요 |
